Aviation Digital Data Service (ADDS)

Output produced by METARs form (1823 UTC 22 November 2017)
found at http://www.aviationweather.gov/adds/metars/
 
HRYR 221700Z 06007KT 9999 SCT025 BKN100 21/17 Q1017 NOSIG
TAF HRYR 221700Z 2218/2324 06008KT 9999 SCT025 BKN100 FM 222100 30004KT FEW026 SCT100 
     BECMG 2304/2307 VRB03KT SCT025 SCT100 FM 230900 17008KT BKN024 
     BECMG 2310/2313 18010G20KT -TSRA FEW023CB BKN025 
     TEMPO 2315/2321 09014KT TSRA FEW024CB BKN025